sensor_id;sensor_type;location;lat;lon;timestamp;P1;durP1;ratioP1;P2;durP2;ratioP2
42742;SDS011;28397;44.552;-0.848;2022-12-08T00:01:02;76.20;;;68.45;;
42742;SDS011;28397;44.552;-0.848;2022-12-08T00:03:32;21.02;;;18.80;;
42742;SDS011;28397;44.552;-0.848;2022-12-08T00:05:58;16.13;;;13.35;;
42742;SDS011;28397;44.552;-0.848;2022-12-08T00:08:44;16.48;;;13.38;;
42742;SDS011;28397;44.552;-0.848;2022-12-08T00:11:28;26.48;;;23.65;;
42742;SDS011;28397;44.552;-0.848;2022-12-08T00:13:53;19.45;;;15.63;;
42742;SDS011;28397;44.552;-0.848;2022-12-08T00:16:19;16.52;;;13.02;;
42742;SDS011;28397;44.552;-0.848;2022-12-08T00:18:45;18.23;;;12.93;;
42742;SDS011;28397;44.552;-0.848;2022-12-08T00:21:10;14.02;;;11.90;;
42742;SDS011;28397;44.552;-0.848;2022-12-08T00:23:36;16.70;;;15.00;;
42742;SDS011;28397;44.552;-0.848;2022-12-08T00:26:02;21.00;;;18.58;;
42742;SDS011;28397;44.552;-0.848;2022-12-08T00:28:29;15.52;;;12.88;;
42742;SDS011;28397;44.552;-0.848;2022-12-08T00:30:55;15.82;;;11.50;;
42742;SDS011;28397;44.552;-0.848;2022-12-08T00:33:21;14.48;;;12.02;;
42742;SDS011;28397;44.552;-0.848;2022-12-08T00:35:47;15.23;;;12.07;;
42742;SDS011;28397;44.552;-0.848;2022-12-08T00:38:13;15.98;;;11.85;;
42742;SDS011;28397;44.552;-0.848;2022-12-08T00:40:42;16.02;;;12.35;;
42742;SDS011;28397;44.552;-0.848;2022-12-08T00:43:09;16.45;;;12.95;;
42742;SDS011;28397;44.552;-0.848;2022-12-08T00:45:35;21.33;;;15.68;;
42742;SDS011;28397;44.552;-0.848;2022-12-08T00:48:00;20.35;;;16.00;;
42742;SDS011;28397;44.552;-0.848;2022-12-08T00:50:26;19.73;;;16.83;;
42742;SDS011;28397;44.552;-0.848;2022-12-08T00:52:52;17.58;;;14.20;;
42742;SDS011;28397;44.552;-0.848;2022-12-08T00:55:18;17.63;;;13.27;;
42742;SDS011;28397;44.552;-0.848;2022-12-08T00:57:43;19.35;;;13.82;;
42742;SDS011;28397;44.552;-0.848;2022-12-08T01:00:09;18.05;;;14.77;;
42742;SDS011;28397;44.552;-0.848;2022-12-08T01:02:35;20.77;;;18.23;;
42742;SDS011;28397;44.552;-0.848;2022-12-08T01:05:01;22.20;;;18.48;;
42742;SDS011;28397;44.552;-0.848;2022-12-08T01:07:27;20.20;;;16.02;;
42742;SDS011;28397;44.552;-0.848;2022-12-08T01:09:52;16.30;;;13.75;;
42742;SDS011;28397;44.552;-0.848;2022-12-08T01:12:18;18.33;;;13.50;;
42742;SDS011;28397;44.552;-0.848;2022-12-08T01:14:44;15.93;;;12.07;;
42742;SDS011;28397;44.552;-0.848;2022-12-08T01:17:09;19.23;;;12.10;;
42742;SDS011;28397;44.552;-0.848;2022-12-08T01:19:35;13.65;;;11.30;;
42742;SDS011;28397;44.552;-0.848;2022-12-08T01:22:01;16.33;;;11.23;;
42742;SDS011;28397;44.552;-0.848;2022-12-08T01:24:27;16.25;;;11.55;;
42742;SDS011;28397;44.552;-0.848;2022-12-08T01:26:53;16.25;;;11.82;;
42742;SDS011;28397;44.552;-0.848;2022-12-08T01:29:18;15.60;;;12.13;;
42742;SDS011;28397;44.552;-0.848;2022-12-08T01:31:44;15.57;;;11.40;;
42742;SDS011;28397;44.552;-0.848;2022-12-08T01:34:10;15.60;;;11.05;;
42742;SDS011;28397;44.552;-0.848;2022-12-08T01:36:36;16.08;;;11.27;;
42742;SDS011;28397;44.552;-0.848;2022-12-08T01:39:03;19.13;;;11.95;;
42742;SDS011;28397;44.552;-0.848;2022-12-08T01:41:31;13.90;;;10.65;;
42742;SDS011;28397;44.552;-0.848;2022-12-08T01:46:35;16.65;;;10.82;;
42742;SDS011;28397;44.552;-0.848;2022-12-08T01:49:10;17.25;;;11.05;;
42742;SDS011;28397;44.552;-0.848;2022-12-08T01:54:24;18.08;;;11.73;;
42742;SDS011;28397;44.552;-0.848;2022-12-08T01:59:21;16.13;;;11.38;;
42742;SDS011;28397;44.552;-0.848;2022-12-08T02:01:49;16.40;;;11.65;;
42742;SDS011;28397;44.552;-0.848;2022-12-08T02:04:15;16.63;;;11.52;;
42742;SDS011;28397;44.552;-0.848;2022-12-08T02:06:42;15.82;;;11.27;;
42742;SDS011;28397;44.552;-0.848;2022-12-08T02:09:09;18.95;;;13.23;;
42742;SDS011;28397;44.552;-0.848;2022-12-08T02:11:35;20.70;;;15.30;;
42742;SDS011;28397;44.552;-0.848;2022-12-08T02:14:02;23.23;;;15.20;;
42742;SDS011;28397;44.552;-0.848;2022-12-08T02:21:56;16.98;;;13.15;;
42742;SDS011;28397;44.552;-0.848;2022-12-08T02:29:51;16.70;;;12.05;;
42742;SDS011;28397;44.552;-0.848;2022-12-08T02:32:44;14.90;;;12.02;;
42742;SDS011;28397;44.552;-0.848;2022-12-08T02:35:43;14.63;;;10.93;;
42742;SDS011;28397;44.552;-0.848;2022-12-08T02:38:28;14.93;;;10.85;;
42742;SDS011;28397;44.552;-0.848;2022-12-08T02:43:59;14.82;;;10.63;;
42742;SDS011;28397;44.552;-0.848;2022-12-08T02:46:40;14.95;;;11.07;;
42742;SDS011;28397;44.552;-0.848;2022-12-08T02:49:11;16.08;;;10.82;;
42742;SDS011;28397;44.552;-0.848;2022-12-08T02:51:39;12.63;;;10.70;;
42742;SDS011;28397;44.552;-0.848;2022-12-08T02:54:05;14.73;;;10.75;;
42742;SDS011;28397;44.552;-0.848;2022-12-08T02:56:37;14.15;;;11.07;;
42742;SDS011;28397;44.552;-0.848;2022-12-08T03:07:46;14.40;;;11.48;;
42742;SDS011;28397;44.552;-0.848;2022-12-08T03:10:23;15.80;;;11.55;;
42742;SDS011;28397;44.552;-0.848;2022-12-08T03:13:06;13.30;;;10.90;;
42742;SDS011;28397;44.552;-0.848;2022-12-08T03:15:37;18.13;;;11.38;;
42742;SDS011;28397;44.552;-0.848;2022-12-08T03:18:05;14.27;;;10.70;;
42742;SDS011;28397;44.552;-0.848;2022-12-08T03:20:34;14.40;;;10.90;;
42742;SDS011;28397;44.552;-0.848;2022-12-08T03:23:03;14.07;;;11.07;;
42742;SDS011;28397;44.552;-0.848;2022-12-08T03:25:32;15.27;;;10.65;;
42742;SDS011;28397;44.552;-0.848;2022-12-08T03:28:04;16.80;;;11.90;;
42742;SDS011;28397;44.552;-0.848;2022-12-08T03:30:31;14.48;;;11.38;;
42742;SDS011;28397;44.552;-0.848;2022-12-08T03:33:02;15.27;;;11.57;;
42742;SDS011;28397;44.552;-0.848;2022-12-08T03:35:33;15.20;;;11.30;;
42742;SDS011;28397;44.552;-0.848;2022-12-08T03:38:06;13.73;;;11.27;;
42742;SDS011;28397;44.552;-0.848;2022-12-08T03:40:37;16.35;;;11.35;;
42742;SDS011;28397;44.552;-0.848;2022-12-08T03:43:03;16.23;;;11.70;;
42742;SDS011;28397;44.552;-0.848;2022-12-08T03:45:29;14.35;;;11.90;;
42742;SDS011;28397;44.552;-0.848;2022-12-08T03:47:56;15.15;;;11.52;;
42742;SDS011;28397;44.552;-0.848;2022-12-08T03:50:22;18.25;;;12.27;;
42742;SDS011;28397;44.552;-0.848;2022-12-08T03:52:48;15.43;;;12.18;;
42742;SDS011;28397;44.552;-0.848;2022-12-08T03:55:14;16.70;;;12.75;;
42742;SDS011;28397;44.552;-0.848;2022-12-08T03:57:39;16.52;;;12.20;;
42742;SDS011;28397;44.552;-0.848;2022-12-08T04:00:06;15.10;;;12.63;;
42742;SDS011;28397;44.552;-0.848;2022-12-08T04:02:36;17.63;;;13.63;;
42742;SDS011;28397;44.552;-0.848;2022-12-08T04:05:02;16.63;;;12.85;;
42742;SDS011;28397;44.552;-0.848;2022-12-08T04:07:28;16.50;;;13.38;;
42742;SDS011;28397;44.552;-0.848;2022-12-08T04:09:54;17.75;;;13.35;;
42742;SDS011;28397;44.552;-0.848;2022-12-08T04:12:19;16.00;;;12.68;;
42742;SDS011;28397;44.552;-0.848;2022-12-08T04:14:45;15.20;;;12.52;;
42742;SDS011;28397;44.552;-0.848;2022-12-08T04:17:11;21.88;;;18.73;;
42742;SDS011;28397;44.552;-0.848;2022-12-08T04:19:37;18.13;;;14.40;;
42742;SDS011;28397;44.552;-0.848;2022-12-08T04:22:05;16.80;;;14.98;;
42742;SDS011;28397;44.552;-0.848;2022-12-08T04:24:31;15.73;;;12.95;;
42742;SDS011;28397;44.552;-0.848;2022-12-08T04:26:57;20.08;;;16.27;;
42742;SDS011;28397;44.552;-0.848;2022-12-08T04:29:22;19.05;;;13.30;;
42742;SDS011;28397;44.552;-0.848;2022-12-08T04:31:48;14.57;;;12.80;;
42742;SDS011;28397;44.552;-0.848;2022-12-08T04:34:14;14.85;;;12.75;;
42742;SDS011;28397;44.552;-0.848;2022-12-08T04:36:39;14.95;;;12.25;;
42742;SDS011;28397;44.552;-0.848;2022-12-08T04:39:05;25.83;;;21.25;;
42742;SDS011;28397;44.552;-0.848;2022-12-08T04:41:31;22.10;;;16.95;;
42742;SDS011;28397;44.552;-0.848;2022-12-08T04:43:57;15.75;;;13.68;;
42742;SDS011;28397;44.552;-0.848;2022-12-08T04:46:23;16.38;;;12.80;;
42742;SDS011;28397;44.552;-0.848;2022-12-08T04:48:48;16.17;;;12.25;;
42742;SDS011;28397;44.552;-0.848;2022-12-08T04:51:15;15.95;;;13.00;;
42742;SDS011;28397;44.552;-0.848;2022-12-08T04:53:42;17.63;;;13.75;;
42742;SDS011;28397;44.552;-0.848;2022-12-08T04:56:12;22.92;;;19.77;;
42742;SDS011;28397;44.552;-0.848;2022-12-08T04:58:40;14.40;;;11.60;;
42742;SDS011;28397;44.552;-0.848;2022-12-08T05:01:06;14.60;;;12.23;;
42742;SDS011;28397;44.552;-0.848;2022-12-08T05:03:32;25.83;;;23.05;;
42742;SDS011;28397;44.552;-0.848;2022-12-08T05:05:58;20.95;;;18.67;;
42742;SDS011;28397;44.552;-0.848;2022-12-08T05:08:24;16.15;;;13.50;;
42742;SDS011;28397;44.552;-0.848;2022-12-08T05:10:50;15.95;;;12.52;;
42742;SDS011;28397;44.552;-0.848;2022-12-08T05:13:16;14.75;;;12.18;;
42742;SDS011;28397;44.552;-0.848;2022-12-08T05:15:41;17.08;;;12.15;;
42742;SDS011;28397;44.552;-0.848;2022-12-08T05:18:07;15.18;;;13.38;;
42742;SDS011;28397;44.552;-0.848;2022-12-08T05:20:33;15.07;;;12.80;;
42742;SDS011;28397;44.552;-0.848;2022-12-08T05:22:59;15.32;;;11.90;;
42742;SDS011;28397;44.552;-0.848;2022-12-08T05:25:25;16.48;;;12.80;;
42742;SDS011;28397;44.552;-0.848;2022-12-08T05:27:50;13.90;;;12.38;;
42742;SDS011;28397;44.552;-0.848;2022-12-08T05:30:16;13.30;;;11.90;;
42742;SDS011;28397;44.552;-0.848;2022-12-08T05:32:42;15.85;;;12.50;;
42742;SDS011;28397;44.552;-0.848;2022-12-08T05:35:08;15.65;;;12.43;;
42742;SDS011;28397;44.552;-0.848;2022-12-08T05:37:34;14.50;;;12.77;;
42742;SDS011;28397;44.552;-0.848;2022-12-08T05:40:00;14.38;;;12.88;;
42742;SDS011;28397;44.552;-0.848;2022-12-08T05:42:25;15.32;;;13.40;;
42742;SDS011;28397;44.552;-0.848;2022-12-08T05:44:51;14.18;;;12.68;;
42742;SDS011;28397;44.552;-0.848;2022-12-08T05:47:17;16.45;;;12.95;;
42742;SDS011;28397;44.552;-0.848;2022-12-08T05:49:43;15.18;;;12.95;;
42742;SDS011;28397;44.552;-0.848;2022-12-08T05:52:09;13.95;;;12.10;;
42742;SDS011;28397;44.552;-0.848;2022-12-08T05:54:34;14.95;;;13.35;;
42742;SDS011;28397;44.552;-0.848;2022-12-08T05:57:00;14.52;;;12.65;;
42742;SDS011;28397;44.552;-0.848;2022-12-08T05:59:26;13.85;;;12.45;;
42742;SDS011;28397;44.552;-0.848;2022-12-08T06:01:51;14.82;;;12.98;;
42742;SDS011;28397;44.552;-0.848;2022-12-08T06:04:17;15.27;;;12.68;;
42742;SDS011;28397;44.552;-0.848;2022-12-08T06:06:43;15.80;;;12.32;;
42742;SDS011;28397;44.552;-0.848;2022-12-08T06:09:09;18.30;;;12.85;;
42742;SDS011;28397;44.552;-0.848;2022-12-08T06:11:34;14.27;;;12.43;;
42742;SDS011;28397;44.552;-0.848;2022-12-08T06:14:00;15.73;;;13.60;;
42742;SDS011;28397;44.552;-0.848;2022-12-08T06:16:27;15.20;;;13.60;;
42742;SDS011;28397;44.552;-0.848;2022-12-08T06:18:53;16.55;;;13.65;;
42742;SDS011;28397;44.552;-0.848;2022-12-08T06:21:19;16.60;;;14.63;;
42742;SDS011;28397;44.552;-0.848;2022-12-08T06:23:48;17.73;;;15.02;;
42742;SDS011;28397;44.552;-0.848;2022-12-08T06:26:15;17.45;;;15.13;;
42742;SDS011;28397;44.552;-0.848;2022-12-08T06:28:42;17.23;;;14.90;;
42742;SDS011;28397;44.552;-0.848;2022-12-08T06:31:09;15.63;;;13.23;;
42742;SDS011;28397;44.552;-0.848;2022-12-08T06:33:37;15.85;;;13.27;;
42742;SDS011;28397;44.552;-0.848;2022-12-08T06:36:03;15.30;;;13.55;;
42742;SDS011;28397;44.552;-0.848;2022-12-08T06:38:30;15.38;;;13.77;;
42742;SDS011;28397;44.552;-0.848;2022-12-08T06:40:56;15.25;;;13.65;;
42742;SDS011;28397;44.552;-0.848;2022-12-08T06:43:22;15.52;;;13.80;;
42742;SDS011;28397;44.552;-0.848;2022-12-08T06:45:49;15.13;;;13.48;;
42742;SDS011;28397;44.552;-0.848;2022-12-08T06:48:15;17.50;;;13.77;;
42742;SDS011;28397;44.552;-0.848;2022-12-08T06:50:42;16.60;;;14.80;;
42742;SDS011;28397;44.552;-0.848;2022-12-08T06:53:09;14.38;;;12.88;;
42742;SDS011;28397;44.552;-0.848;2022-12-08T06:55:37;15.15;;;13.60;;
42742;SDS011;28397;44.552;-0.848;2022-12-08T06:58:07;15.82;;;14.13;;
42742;SDS011;28397;44.552;-0.848;2022-12-08T07:00:32;18.85;;;16.85;;
42742;SDS011;28397;44.552;-0.848;2022-12-08T07:02:58;20.45;;;18.38;;
42742;SDS011;28397;44.552;-0.848;2022-12-08T07:05:24;25.10;;;22.50;;
42742;SDS011;28397;44.552;-0.848;2022-12-08T07:07:49;17.63;;;15.07;;
42742;SDS011;28397;44.552;-0.848;2022-12-08T07:10:15;16.05;;;14.35;;
42742;SDS011;28397;44.552;-0.848;2022-12-08T07:12:41;16.85;;;15.10;;
42742;SDS011;28397;44.552;-0.848;2022-12-08T07:15:07;15.88;;;14.27;;
42742;SDS011;28397;44.552;-0.848;2022-12-08T07:17:33;17.10;;;15.30;;
42742;SDS011;28397;44.552;-0.848;2022-12-08T07:19:59;17.92;;;15.18;;
42742;SDS011;28397;44.552;-0.848;2022-12-08T07:22:24;19.50;;;15.90;;
42742;SDS011;28397;44.552;-0.848;2022-12-08T07:24:50;19.25;;;16.48;;
42742;SDS011;28397;44.552;-0.848;2022-12-08T07:27:15;19.25;;;16.33;;
42742;SDS011;28397;44.552;-0.848;2022-12-08T07:29:41;18.73;;;16.52;;
42742;SDS011;28397;44.552;-0.848;2022-12-08T07:32:07;17.30;;;15.55;;
42742;SDS011;28397;44.552;-0.848;2022-12-08T07:34:33;18.20;;;16.17;;
42742;SDS011;28397;44.552;-0.848;2022-12-08T07:36:58;17.50;;;15.55;;
42742;SDS011;28397;44.552;-0.848;2022-12-08T07:39:24;31.15;;;26.58;;
42742;SDS011;28397;44.552;-0.848;2022-12-08T07:41:50;19.85;;;17.85;;
42742;SDS011;28397;44.552;-0.848;2022-12-08T07:44:15;26.00;;;23.40;;
42742;SDS011;28397;44.552;-0.848;2022-12-08T07:46:41;28.27;;;25.27;;
42742;SDS011;28397;44.552;-0.848;2022-12-08T07:49:07;25.33;;;22.38;;
42742;SDS011;28397;44.552;-0.848;2022-12-08T07:51:32;24.98;;;22.35;;
42742;SDS011;28397;44.552;-0.848;2022-12-08T07:53:58;22.02;;;19.73;;
42742;SDS011;28397;44.552;-0.848;2022-12-08T07:56:24;19.38;;;17.48;;
42742;SDS011;28397;44.552;-0.848;2022-12-08T07:58:49;18.70;;;16.30;;
42742;SDS011;28397;44.552;-0.848;2022-12-08T08:01:33;19.17;;;16.30;;
42742;SDS011;28397;44.552;-0.848;2022-12-08T08:04:00;16.95;;;15.18;;
42742;SDS011;28397;44.552;-0.848;2022-12-08T08:06:28;18.85;;;16.40;;
42742;SDS011;28397;44.552;-0.848;2022-12-08T08:08:54;19.40;;;16.85;;
42742;SDS011;28397;44.552;-0.848;2022-12-08T08:11:20;19.90;;;16.75;;
42742;SDS011;28397;44.552;-0.848;2022-12-08T08:13:45;17.48;;;14.80;;
42742;SDS011;28397;44.552;-0.848;2022-12-08T08:16:11;17.20;;;14.85;;
42742;SDS011;28397;44.552;-0.848;2022-12-08T08:18:38;15.18;;;13.70;;
42742;SDS011;28397;44.552;-0.848;2022-12-08T08:21:04;17.42;;;14.63;;
42742;SDS011;28397;44.552;-0.848;2022-12-08T08:23:30;16.00;;;14.00;;
42742;SDS011;28397;44.552;-0.848;2022-12-08T08:25:58;16.10;;;14.10;;
42742;SDS011;28397;44.552;-0.848;2022-12-08T08:28:24;16.45;;;14.50;;
42742;SDS011;28397;44.552;-0.848;2022-12-08T08:30:50;16.65;;;14.95;;
42742;SDS011;28397;44.552;-0.848;2022-12-08T08:33:16;16.50;;;14.23;;
42742;SDS011;28397;44.552;-0.848;2022-12-08T08:35:42;17.10;;;14.65;;
42742;SDS011;28397;44.552;-0.848;2022-12-08T08:38:07;16.70;;;14.95;;
42742;SDS011;28397;44.552;-0.848;2022-12-08T08:40:33;17.50;;;15.77;;
42742;SDS011;28397;44.552;-0.848;2022-12-08T08:43:00;18.55;;;16.52;;
42742;SDS011;28397;44.552;-0.848;2022-12-08T08:45:26;16.55;;;14.85;;
42742;SDS011;28397;44.552;-0.848;2022-12-08T08:47:52;16.02;;;14.32;;
42742;SDS011;28397;44.552;-0.848;2022-12-08T08:50:17;17.02;;;14.15;;
42742;SDS011;28397;44.552;-0.848;2022-12-08T08:52:43;16.63;;;14.63;;
42742;SDS011;28397;44.552;-0.848;2022-12-08T08:55:09;16.33;;;14.73;;
42742;SDS011;28397;44.552;-0.848;2022-12-08T08:57:35;15.80;;;14.15;;
42742;SDS011;28397;44.552;-0.848;2022-12-08T09:00:01;16.00;;;14.40;;
42742;SDS011;28397;44.552;-0.848;2022-12-08T09:02:28;17.48;;;15.75;;
42742;SDS011;28397;44.552;-0.848;2022-12-08T09:04:54;19.23;;;17.08;;
42742;SDS011;28397;44.552;-0.848;2022-12-08T09:07:19;17.95;;;16.02;;
42742;SDS011;28397;44.552;-0.848;2022-12-08T09:09:45;18.17;;;16.33;;
42742;SDS011;28397;44.552;-0.848;2022-12-08T09:12:11;18.30;;;16.40;;
42742;SDS011;28397;44.552;-0.848;2022-12-08T09:14:37;16.95;;;15.25;;
42742;SDS011;28397;44.552;-0.848;2022-12-08T09:17:03;22.70;;;16.40;;
42742;SDS011;28397;44.552;-0.848;2022-12-08T09:19:29;18.10;;;14.85;;
42742;SDS011;28397;44.552;-0.848;2022-12-08T09:21:55;15.98;;;14.35;;
42742;SDS011;28397;44.552;-0.848;2022-12-08T09:24:21;16.83;;;14.43;;
42742;SDS011;28397;44.552;-0.848;2022-12-08T09:26:47;17.60;;;15.80;;
42742;SDS011;28397;44.552;-0.848;2022-12-08T09:29:12;16.30;;;14.70;;
42742;SDS011;28397;44.552;-0.848;2022-12-08T09:31:38;19.20;;;17.20;;
42742;SDS011;28397;44.552;-0.848;2022-12-08T09:34:04;28.85;;;25.92;;
42742;SDS011;28397;44.552;-0.848;2022-12-08T09:36:30;22.77;;;20.27;;
42742;SDS011;28397;44.552;-0.848;2022-12-08T09:38:56;30.23;;;27.17;;
42742;SDS011;28397;44.552;-0.848;2022-12-08T09:41:27;55.95;;;50.00;;
42742;SDS011;28397;44.552;-0.848;2022-12-08T09:44:15;30.73;;;27.45;;
42742;SDS011;28397;44.552;-0.848;2022-12-08T09:46:44;24.30;;;21.85;;
42742;SDS011;28397;44.552;-0.848;2022-12-08T09:49:16;17.88;;;16.08;;
42742;SDS011;28397;44.552;-0.848;2022-12-08T09:51:45;17.85;;;15.95;;
42742;SDS011;28397;44.552;-0.848;2022-12-08T09:54:24;16.73;;;14.93;;
42742;SDS011;28397;44.552;-0.848;2022-12-08T09:56:56;17.65;;;15.85;;
42742;SDS011;28397;44.552;-0.848;2022-12-08T09:59:30;19.08;;;17.08;;
42742;SDS011;28397;44.552;-0.848;2022-12-08T10:01:59;29.10;;;24.27;;
42742;SDS011;28397;44.552;-0.848;2022-12-08T10:04:36;32.72;;;28.92;;
42742;SDS011;28397;44.552;-0.848;2022-12-08T10:12:25;26.08;;;23.17;;
42742;SDS011;28397;44.552;-0.848;2022-12-08T10:15:05;19.73;;;17.63;;
42742;SDS011;28397;44.552;-0.848;2022-12-08T10:17:53;20.60;;;18.45;;
42742;SDS011;28397;44.552;-0.848;2022-12-08T10:20:22;18.35;;;16.48;;
42742;SDS011;28397;44.552;-0.848;2022-12-08T10:22:55;17.20;;;15.40;;
42742;SDS011;28397;44.552;-0.848;2022-12-08T10:25:51;16.83;;;15.00;;
42742;SDS011;28397;44.552;-0.848;2022-12-08T10:30:48;21.05;;;15.95;;
42742;SDS011;28397;44.552;-0.848;2022-12-08T10:33:15;18.83;;;15.07;;
42742;SDS011;28397;44.552;-0.848;2022-12-08T10:35:45;16.38;;;14.73;;
42742;SDS011;28397;44.552;-0.848;2022-12-08T10:38:18;17.30;;;15.60;;
42742;SDS011;28397;44.552;-0.848;2022-12-08T10:41:05;16.02;;;14.32;;
42742;SDS011;28397;44.552;-0.848;2022-12-08T10:43:38;16.27;;;14.63;;
42742;SDS011;28397;44.552;-0.848;2022-12-08T10:46:13;16.35;;;14.50;;
42742;SDS011;28397;44.552;-0.848;2022-12-08T10:48:54;16.60;;;13.95;;
42742;SDS011;28397;44.552;-0.848;2022-12-08T10:51:39;15.18;;;13.68;;
42742;SDS011;28397;44.552;-0.848;2022-12-08T10:57:08;16.95;;;15.15;;
42742;SDS011;28397;44.552;-0.848;2022-12-08T10:59:45;16.35;;;14.65;;
42742;SDS011;28397;44.552;-0.848;2022-12-08T11:02:13;16.25;;;14.57;;
42742;SDS011;28397;44.552;-0.848;2022-12-08T11:04:43;18.70;;;14.55;;
42742;SDS011;28397;44.552;-0.848;2022-12-08T11:07:10;16.80;;;14.40;;
42742;SDS011;28397;44.552;-0.848;2022-12-08T11:09:45;15.90;;;14.27;;
42742;SDS011;28397;44.552;-0.848;2022-12-08T11:12:15;15.80;;;14.02;;
42742;SDS011;28397;44.552;-0.848;2022-12-08T11:17:11;16.67;;;13.90;;
42742;SDS011;28397;44.552;-0.848;2022-12-08T11:19:42;15.15;;;13.32;;
42742;SDS011;28397;44.552;-0.848;2022-12-08T11:25:00;17.30;;;13.85;;
42742;SDS011;28397;44.552;-0.848;2022-12-08T11:27:27;16.10;;;14.43;;
42742;SDS011;28397;44.552;-0.848;2022-12-08T11:29:53;15.43;;;13.95;;
42742;SDS011;28397;44.552;-0.848;2022-12-08T11:32:20;15.80;;;14.27;;
42742;SDS011;28397;44.552;-0.848;2022-12-08T11:34:50;15.05;;;13.43;;
42742;SDS011;28397;44.552;-0.848;2022-12-08T11:37:26;15.32;;;13.73;;
42742;SDS011;28397;44.552;-0.848;2022-12-08T11:40:13;15.75;;;13.43;;
42742;SDS011;28397;44.552;-0.848;2022-12-08T11:43:07;15.32;;;13.73;;
42742;SDS011;28397;44.552;-0.848;2022-12-08T11:45:48;18.73;;;16.77;;
42742;SDS011;28397;44.552;-0.848;2022-12-08T11:53:51;15.57;;;13.40;;
42742;SDS011;28397;44.552;-0.848;2022-12-08T11:56:21;16.45;;;12.43;;
42742;SDS011;28397;44.552;-0.848;2022-12-08T11:59:02;14.52;;;13.10;;
42742;SDS011;28397;44.552;-0.848;2022-12-08T12:01:36;14.18;;;12.77;;
42742;SDS011;28397;44.552;-0.848;2022-12-08T12:15:23;14.18;;;12.77;;
42742;SDS011;28397;44.552;-0.848;2022-12-08T12:20:28;15.00;;;13.13;;
42742;SDS011;28397;44.552;-0.848;2022-12-08T12:23:01;15.25;;;13.65;;
42742;SDS011;28397;44.552;-0.848;2022-12-08T12:25:52;13.13;;;11.77;;
42742;SDS011;28397;44.552;-0.848;2022-12-08T12:28:25;14.63;;;13.15;;
42742;SDS011;28397;44.552;-0.848;2022-12-08T12:34:24;14.27;;;12.80;;
42742;SDS011;28397;44.552;-0.848;2022-12-08T12:39:31;16.00;;;14.30;;
42742;SDS011;28397;44.552;-0.848;2022-12-08T12:42:00;14.40;;;12.90;;
42742;SDS011;28397;44.552;-0.848;2022-12-08T12:57:14;17.10;;;15.05;;
42742;SDS011;28397;44.552;-0.848;2022-12-08T12:59:45;14.48;;;12.48;;
42742;SDS011;28397;44.552;-0.848;2022-12-08T13:02:33;15.80;;;12.82;;
42742;SDS011;28397;44.552;-0.848;2022-12-08T13:10:33;15.65;;;14.05;;
42742;SDS011;28397;44.552;-0.848;2022-12-08T13:15:37;14.20;;;12.68;;
42742;SDS011;28397;44.552;-0.848;2022-12-08T13:18:15;15.70;;;13.73;;
42742;SDS011;28397;44.552;-0.848;2022-12-08T13:20:50;16.50;;;13.73;;
42742;SDS011;28397;44.552;-0.848;2022-12-08T13:23:40;15.60;;;14.00;;
42742;SDS011;28397;44.552;-0.848;2022-12-08T13:31:39;20.42;;;18.33;;
42742;SDS011;28397;44.552;-0.848;2022-12-08T13:34:48;16.90;;;15.10;;
42742;SDS011;28397;44.552;-0.848;2022-12-08T13:44:58;15.57;;;13.98;;
42742;SDS011;28397;44.552;-0.848;2022-12-08T13:47:41;15.43;;;13.95;;
42742;SDS011;28397;44.552;-0.848;2022-12-08T13:50:11;16.05;;;14.55;;
42742;SDS011;28397;44.552;-0.848;2022-12-08T13:53:01;15.98;;;14.27;;
42742;SDS011;28397;44.552;-0.848;2022-12-08T13:55:39;16.15;;;14.55;;
42742;SDS011;28397;44.552;-0.848;2022-12-08T14:03:29;22.30;;;19.55;;
42742;SDS011;28397;44.552;-0.848;2022-12-08T14:05:58;24.75;;;17.58;;
42742;SDS011;28397;44.552;-0.848;2022-12-08T14:08:31;36.65;;;30.23;;
42742;SDS011;28397;44.552;-0.848;2022-12-08T14:11:00;37.05;;;30.85;;
42742;SDS011;28397;44.552;-0.848;2022-12-08T14:13:29;24.88;;;22.27;;
42742;SDS011;28397;44.552;-0.848;2022-12-08T14:15:56;19.33;;;16.60;;
42742;SDS011;28397;44.552;-0.848;2022-12-08T14:18:27;19.60;;;17.52;;
42742;SDS011;28397;44.552;-0.848;2022-12-08T14:21:01;23.50;;;17.90;;
42742;SDS011;28397;44.552;-0.848;2022-12-08T14:23:32;19.88;;;16.88;;
42742;SDS011;28397;44.552;-0.848;2022-12-08T14:25:59;23.52;;;18.08;;
42742;SDS011;28397;44.552;-0.848;2022-12-08T14:28:25;18.33;;;15.82;;
42742;SDS011;28397;44.552;-0.848;2022-12-08T14:30:51;18.17;;;16.27;;
42742;SDS011;28397;44.552;-0.848;2022-12-08T14:33:19;17.10;;;14.77;;
42742;SDS011;28397;44.552;-0.848;2022-12-08T14:35:49;19.27;;;15.20;;
42742;SDS011;28397;44.552;-0.848;2022-12-08T14:38:17;17.63;;;15.20;;
42742;SDS011;28397;44.552;-0.848;2022-12-08T14:41:06;17.88;;;16.00;;
42742;SDS011;28397;44.552;-0.848;2022-12-08T14:43:32;17.10;;;15.30;;
42742;SDS011;28397;44.552;-0.848;2022-12-08T14:45:59;18.80;;;16.50;;
42742;SDS011;28397;44.552;-0.848;2022-12-08T14:51:04;23.50;;;21.13;;
42742;SDS011;28397;44.552;-0.848;2022-12-08T14:55:59;19.45;;;17.35;;
42742;SDS011;28397;44.552;-0.848;2022-12-08T14:58:26;20.27;;;18.15;;
42742;SDS011;28397;44.552;-0.848;2022-12-08T15:00:57;20.77;;;18.67;;
42742;SDS011;28397;44.552;-0.848;2022-12-08T15:03:26;19.88;;;17.77;;
42742;SDS011;28397;44.552;-0.848;2022-12-08T15:05:59;20.73;;;18.70;;
42742;SDS011;28397;44.552;-0.848;2022-12-08T15:08:28;19.40;;;17.40;;
42742;SDS011;28397;44.552;-0.848;2022-12-08T15:13:44;18.83;;;16.90;;
42742;SDS011;28397;44.552;-0.848;2022-12-08T15:16:23;17.95;;;16.15;;
42742;SDS011;28397;44.552;-0.848;2022-12-08T15:18:59;20.63;;;18.42;;
42742;SDS011;28397;44.552;-0.848;2022-12-08T15:21:28;23.35;;;20.50;;
42742;SDS011;28397;44.552;-0.848;2022-12-08T15:23:56;28.45;;;25.50;;
42742;SDS011;28397;44.552;-0.848;2022-12-08T15:26:23;37.50;;;32.50;;
42742;SDS011;28397;44.552;-0.848;2022-12-08T15:28:51;27.45;;;24.65;;
42742;SDS011;28397;44.552;-0.848;2022-12-08T15:31:17;20.10;;;18.15;;
42742;SDS011;28397;44.552;-0.848;2022-12-08T15:33:43;27.05;;;23.45;;
42742;SDS011;28397;44.552;-0.848;2022-12-08T15:36:09;23.23;;;20.92;;
42742;SDS011;28397;44.552;-0.848;2022-12-08T15:38:35;21.25;;;19.15;;
42742;SDS011;28397;44.552;-0.848;2022-12-08T15:41:01;25.48;;;22.88;;
42742;SDS011;28397;44.552;-0.848;2022-12-08T15:43:28;19.45;;;17.55;;
42742;SDS011;28397;44.552;-0.848;2022-12-08T15:45:55;21.58;;;19.45;;
42742;SDS011;28397;44.552;-0.848;2022-12-08T15:48:26;21.17;;;19.10;;
42742;SDS011;28397;44.552;-0.848;2022-12-08T15:50:53;23.45;;;21.15;;
42742;SDS011;28397;44.552;-0.848;2022-12-08T15:53:20;31.80;;;28.90;;
42742;SDS011;28397;44.552;-0.848;2022-12-08T15:55:46;24.95;;;22.35;;
42742;SDS011;28397;44.552;-0.848;2022-12-08T15:58:19;25.50;;;22.98;;
42742;SDS011;28397;44.552;-0.848;2022-12-08T16:00:49;28.85;;;25.95;;
42742;SDS011;28397;44.552;-0.848;2022-12-08T16:03:23;24.88;;;21.52;;
42742;SDS011;28397;44.552;-0.848;2022-12-08T16:05:51;22.65;;;20.35;;
42742;SDS011;28397;44.552;-0.848;2022-12-08T16:08:17;23.05;;;20.63;;
42742;SDS011;28397;44.552;-0.848;2022-12-08T16:10:44;22.13;;;20.02;;
42742;SDS011;28397;44.552;-0.848;2022-12-08T16:13:14;24.80;;;22.30;;
42742;SDS011;28397;44.552;-0.848;2022-12-08T16:15:59;24.27;;;21.80;;
42742;SDS011;28397;44.552;-0.848;2022-12-08T16:18:27;23.35;;;20.95;;